createdAt,value
2019-02-18T00:00:54.698Z,18.10
2019-02-18T00:03:21.572Z,17.23
2019-02-18T00:05:48.430Z,15.87
2019-02-18T00:08:15.301Z,16.80
2019-02-18T00:10:42.143Z,15.53
2019-02-18T00:13:09.025Z,17.27
2019-02-18T00:15:35.883Z,19.63
2019-02-18T00:18:02.775Z,18.00
2019-02-18T00:20:29.642Z,14.70
2019-02-18T00:22:56.511Z,14.83
2019-02-18T00:25:23.374Z,20.37
2019-02-18T00:27:50.255Z,14.40
2019-02-18T00:30:17.122Z,16.90
2019-02-18T00:32:44.006Z,15.47
2019-02-18T00:35:10.858Z,21.90
2019-02-18T00:37:37.718Z,14.47
2019-02-18T00:40:04.742Z,15.50
2019-02-18T00:42:31.610Z,15.73
2019-02-18T00:44:58.478Z,19.00
2019-02-18T00:47:25.354Z,16.05
2019-02-18T00:49:52.214Z,12.43
2019-02-18T00:52:19.106Z,17.67
2019-02-18T00:54:45.954Z,15.95
2019-02-18T00:57:12.844Z,15.70
2019-02-18T00:59:39.704Z,15.08
2019-02-18T01:02:06.587Z,13.67
2019-02-18T01:04:33.433Z,13.65
2019-02-18T01:07:00.329Z,15.20
2019-02-18T01:09:27.347Z,14.83
2019-02-18T01:11:54.218Z,12.77
2019-02-18T01:14:21.068Z,16.63
2019-02-18T01:16:47.913Z,13.80
2019-02-18T01:19:14.782Z,15.00
2019-02-18T01:21:41.634Z,18.30
2019-02-18T01:24:08.505Z,11.60
2019-02-18T01:26:35.359Z,11.40
2019-02-18T01:29:02.231Z,13.27
2019-02-18T01:31:29.090Z,12.53
2019-02-18T01:33:55.967Z,13.98
2019-02-18T01:36:23.212Z,15.20
2019-02-18T01:38:49.691Z,13.00
2019-02-18T01:41:16.551Z,13.15
2019-02-18T01:43:43.414Z,12.40
2019-02-18T01:46:10.262Z,12.60
2019-02-18T01:48:37.130Z,12.83
2019-02-18T01:51:03.999Z,14.17
2019-02-18T01:53:30.870Z,15.97
2019-02-18T01:55:57.728Z,16.60
2019-02-18T01:58:24.586Z,16.75
2019-02-18T02:00:51.455Z,11.97
2019-02-18T02:03:18.324Z,15.47
2019-02-18T02:05:45.169Z,15.43
2019-02-18T02:08:12.022Z,14.28
2019-02-18T02:10:38.876Z,12.67
2019-02-18T02:13:17.379Z,13.50
2019-02-18T02:15:44.222Z,12.00
2019-02-18T02:18:11.103Z,12.77
2019-02-18T02:20:37.962Z,13.53
2019-02-18T02:23:04.851Z,11.00
2019-02-18T02:25:31.706Z,13.00
2019-02-18T02:27:58.605Z,15.63
2019-02-18T02:30:25.460Z,13.40
2019-02-18T02:32:52.336Z,15.87
2019-02-18T02:35:19.193Z,15.38
2019-02-18T02:37:46.033Z,15.03
2019-02-18T02:40:12.904Z,14.83
2019-02-18T02:42:39.751Z,16.05
2019-02-18T02:45:06.696Z,13.93
2019-02-18T02:47:33.559Z,16.40
2019-02-18T02:50:00.443Z,16.23
2019-02-18T02:52:27.296Z,13.97
2019-02-18T02:54:54.154Z,16.42
2019-02-18T02:57:21.023Z,17.90
2019-02-18T02:59:47.882Z,15.75
2019-02-18T03:02:14.739Z,16.20
2019-02-18T03:04:41.608Z,14.30
2019-02-18T03:07:08.456Z,13.70
2019-02-18T03:09:35.342Z,13.57
2019-02-18T03:12:02.186Z,15.65
2019-02-18T03:14:29.060Z,15.63
2019-02-18T03:16:55.903Z,14.77
2019-02-18T03:19:22.766Z,15.83
2019-02-18T03:21:49.622Z,12.50
2019-02-18T03:24:16.474Z,15.30
2019-02-18T03:26:43.326Z,13.90
2019-02-18T03:29:23.218Z,12.77
2019-02-18T03:31:50.060Z,13.48
2019-02-18T03:34:23.559Z,13.10
2019-02-18T03:36:50.411Z,13.98
2019-02-18T03:39:17.278Z,12.80
2019-02-18T03:41:44.158Z,14.23
2019-02-18T03:44:11.070Z,15.53
2019-02-18T03:46:37.919Z,13.70
2019-02-18T03:49:04.822Z,13.77
2019-02-18T03:51:31.683Z,14.47
2019-02-18T03:53:58.553Z,14.25
2019-02-18T03:56:25.400Z,14.80
2019-02-18T03:58:52.286Z,12.35
2019-02-18T04:01:19.134Z,13.30
2019-02-18T04:03:46.023Z,16.23
2019-02-18T04:06:12.883Z,15.00
2019-02-18T04:08:42.815Z,13.97
2019-02-18T04:11:06.594Z,13.80
2019-02-18T04:13:33.462Z,13.35
2019-02-18T04:16:00.350Z,13.57
2019-02-18T04:18:27.211Z,14.30
2019-02-18T04:20:54.078Z,16.47
2019-02-18T04:23:20.911Z,12.23
2019-02-18T04:25:47.780Z,10.72
2019-02-18T04:28:14.642Z,12.33
2019-02-18T04:30:41.542Z,16.97
2019-02-18T04:33:08.401Z,14.38
2019-02-18T04:35:35.286Z,17.40
2019-02-18T04:38:02.158Z,14.60
2019-02-18T04:40:29.015Z,14.85
2019-02-18T04:42:55.869Z,13.98
2019-02-18T04:45:22.762Z,16.73
2019-02-18T04:47:49.655Z,12.47
2019-02-18T04:50:16.515Z,14.50
2019-02-18T04:52:43.383Z,14.45
2019-02-18T04:55:10.227Z,12.33
2019-02-18T04:57:37.108Z,13.75
2019-02-18T05:00:04.570Z,12.23
2019-02-18T05:02:31.440Z,13.68
2019-02-18T05:04:58.287Z,12.23
2019-02-18T05:07:25.173Z,13.83
2019-02-18T05:09:52.040Z,13.57
2019-02-18T05:12:18.918Z,14.30
2019-02-18T05:14:45.792Z,12.13
2019-02-18T05:17:12.674Z,10.87
2019-02-18T05:19:39.561Z,15.10
2019-02-18T05:22:06.446Z,14.20
2019-02-18T05:24:33.383Z,15.00
2019-02-18T05:27:00.428Z,14.65
2019-02-18T05:29:27.293Z,13.18
2019-02-18T05:31:54.252Z,14.33
2019-02-18T05:34:21.115Z,14.55
2019-02-18T05:36:47.995Z,16.07
2019-02-18T05:39:18.201Z,15.03
2019-02-18T05:41:41.731Z,13.18
2019-02-18T05:44:08.612Z,13.22
2019-02-18T05:46:35.494Z,14.23
2019-02-18T05:49:02.379Z,15.70
2019-02-18T05:51:29.286Z,16.35
2019-02-18T05:53:56.264Z,12.05
2019-02-18T05:56:23.122Z,14.90
2019-02-18T05:58:50.010Z,16.63
2019-02-18T06:01:17.187Z,15.80
2019-02-18T06:03:44.063Z,14.07
2019-02-18T06:06:10.918Z,14.60
2019-02-18T06:08:37.794Z,11.80
2019-02-18T06:11:04.651Z,13.03
2019-02-18T06:13:31.547Z,14.00
2019-02-18T06:15:58.419Z,14.20
2019-02-18T06:18:25.314Z,15.70
2019-02-18T06:20:52.190Z,20.12
2019-02-18T06:23:19.080Z,21.73
2019-02-18T06:25:45.952Z,16.37
2019-02-18T06:28:12.843Z,20.30
2019-02-18T06:30:39.723Z,18.27
2019-02-18T06:33:06.593Z,20.00
2019-02-18T06:35:33.459Z,18.80
2019-02-18T06:38:00.391Z,19.07
2019-02-18T06:40:27.313Z,19.25
2019-02-18T06:42:54.211Z,16.85
2019-02-18T06:45:40.677Z,21.43
2019-02-18T06:48:11.188Z,19.50
2019-02-18T06:50:38.043Z,16.35
2019-02-18T06:53:04.939Z,17.60
2019-02-18T06:55:31.825Z,16.70
2019-02-18T06:58:02.773Z,17.23
2019-02-18T07:00:52.161Z,19.97
2019-02-18T07:03:24.452Z,16.65
2019-02-18T07:05:56.573Z,14.90
2019-02-18T07:08:44.059Z,20.02
2019-02-18T07:11:17.490Z,20.37
2019-02-18T07:13:44.495Z,17.43
2019-02-18T07:16:11.419Z,20.43
2019-02-18T07:18:38.298Z,23.83
2019-02-18T07:21:05.155Z,25.80
2019-02-18T07:23:32.042Z,24.60
2019-02-18T07:25:58.914Z,19.02
2019-02-18T07:28:25.789Z,24.30
2019-02-18T07:30:52.631Z,23.45
2019-02-18T07:33:19.498Z,25.23
2019-02-18T07:35:46.360Z,23.50
2019-02-18T07:38:13.259Z,23.43
2019-02-18T07:40:40.122Z,22.05
2019-02-18T07:43:07.019Z,25.17
2019-02-18T07:45:33.894Z,24.55
2019-02-18T07:48:00.803Z,28.67
2019-02-18T07:50:27.686Z,23.90
2019-02-18T07:52:54.585Z,25.35
2019-02-18T07:55:21.472Z,25.47
2019-02-18T07:57:48.383Z,22.00
2019-02-18T08:00:15.252Z,24.67
2019-02-18T08:02:42.134Z,22.27
2019-02-18T08:05:09.027Z,19.20
2019-02-18T08:07:35.870Z,22.55
2019-02-18T08:10:11.826Z,20.77
2019-02-18T08:12:29.616Z,23.17
2019-02-18T08:14:56.499Z,24.47
2019-02-18T08:17:23.364Z,25.63
2019-02-18T08:19:50.248Z,23.52
2019-02-18T08:22:17.119Z,25.67
2019-02-18T08:24:44.015Z,26.33
2019-02-18T08:27:10.870Z,30.17
2019-02-18T08:29:37.738Z,27.57
2019-02-18T08:32:04.602Z,25.57
2019-02-18T08:34:31.475Z,25.92
2019-02-18T08:36:58.335Z,26.93
2019-02-18T08:39:25.226Z,22.47
2019-02-18T08:41:52.068Z,25.00
2019-02-18T08:44:18.951Z,27.03
2019-02-18T08:46:45.804Z,23.90
2019-02-18T08:49:12.680Z,25.67
2019-02-18T08:51:39.557Z,23.60
2019-02-18T08:54:06.443Z,22.47
2019-02-18T08:56:33.310Z,22.30
2019-02-18T08:59:00.194Z,22.98
2019-02-18T09:01:27.111Z,22.30
2019-02-18T09:03:53.991Z,23.97
2019-02-18T09:06:20.846Z,23.67
2019-02-18T09:08:47.743Z,17.93
2019-02-18T09:11:14.620Z,24.83
2019-02-18T09:13:41.506Z,20.13
2019-02-18T09:16:08.386Z,19.27
2019-02-18T09:18:35.274Z,17.73
2019-02-18T09:21:02.130Z,18.47
2019-02-18T09:23:36.509Z,21.17
2019-02-18T09:26:04.267Z,21.30
2019-02-18T09:28:31.147Z,17.33
2019-02-18T09:30:58.004Z,27.90
2019-02-18T09:33:24.870Z,17.40
2019-02-18T09:35:51.762Z,17.93
2019-02-18T09:38:25.013Z,21.50
2019-02-18T09:40:50.551Z,17.17
2019-02-18T09:43:12.388Z,16.50
2019-02-18T09:45:39.230Z,15.20
2019-02-18T09:48:06.115Z,13.90
2019-02-18T09:50:32.959Z,16.70
2019-02-18T09:53:02.335Z,13.23
2019-02-18T09:55:26.708Z,13.37
2019-02-18T09:57:53.560Z,15.00
2019-02-18T10:00:20.429Z,14.60
2019-02-18T10:02:49.430Z,13.70
2019-02-18T10:05:16.266Z,14.57
2019-02-18T10:07:43.107Z,12.57
2019-02-18T10:10:09.967Z,14.97
2019-02-18T10:12:36.823Z,14.70
2019-02-18T10:15:03.811Z,14.73
2019-02-18T10:17:30.663Z,13.97
2019-02-18T10:19:57.539Z,15.03
2019-02-18T10:22:24.370Z,14.47
2019-02-18T10:24:51.278Z,15.90
2019-02-18T10:27:18.082Z,10.23
2019-02-18T10:29:44.962Z,11.50
2019-02-18T10:32:11.791Z,12.63
2019-02-18T10:34:38.643Z,10.70
2019-02-18T10:37:05.499Z,13.30
2019-02-18T10:39:32.372Z,12.63
2019-02-18T10:41:59.221Z,10.65
2019-02-18T10:44:26.214Z,13.07
2019-02-18T10:46:53.058Z,13.57
2019-02-18T10:49:21.287Z,12.53
2019-02-18T10:51:46.882Z,14.93
2019-02-18T10:54:13.738Z,12.20
2019-02-18T10:56:40.571Z,15.57
2019-02-18T10:59:07.442Z,11.70
2019-02-18T11:01:34.284Z,12.43
2019-02-18T11:04:01.144Z,10.10
2019-02-18T11:06:27.983Z,10.80
2019-02-18T11:08:54.827Z,10.30
2019-02-18T11:11:21.695Z,10.93
2019-02-18T11:13:48.539Z,10.47
2019-02-18T11:16:15.430Z,10.35
2019-02-18T11:18:42.327Z,12.25
2019-02-18T11:21:09.300Z,10.23
2019-02-18T11:23:36.158Z,10.90
2019-02-18T11:26:03.030Z,11.30
2019-02-18T11:28:30.135Z,10.50
2019-02-18T11:30:57.014Z,12.83
2019-02-18T11:33:23.866Z,15.67
2019-02-18T11:35:50.720Z,12.47
2019-02-18T11:38:17.573Z,10.53
2019-02-18T11:40:44.430Z,10.90
2019-02-18T11:43:11.294Z,9.57
2019-02-18T11:45:38.147Z,10.95
2019-02-18T11:48:04.986Z,14.03
2019-02-18T11:50:31.863Z,11.53
2019-02-18T11:52:58.722Z,11.07
2019-02-18T11:55:25.571Z,11.80
2019-02-18T11:57:52.412Z,11.10
2019-02-18T12:00:19.276Z,11.10
2019-02-18T12:02:46.121Z,15.00
2019-02-18T12:05:13.024Z,9.50
2019-02-18T12:07:39.879Z,12.98
2019-02-18T12:10:07.579Z,11.50
2019-02-18T12:12:34.431Z,9.87
2019-02-18T12:15:01.303Z,9.27
2019-02-18T12:17:28.776Z,9.80
2019-02-18T12:19:55.643Z,9.57
2019-02-18T12:22:22.489Z,9.43
2019-02-18T12:24:49.323Z,10.77
2019-02-18T12:27:16.222Z,9.80
2019-02-18T12:29:43.094Z,9.20
2019-02-18T12:32:09.959Z,9.70
2019-02-18T12:34:36.815Z,12.60
2019-02-18T12:37:03.682Z,12.47
2019-02-18T12:39:30.544Z,10.60
2019-02-18T12:41:57.411Z,10.47
2019-02-18T12:44:24.259Z,10.18
2019-02-18T12:46:51.212Z,9.97
2019-02-18T12:49:18.110Z,9.47
2019-02-18T12:51:45.003Z,11.10
2019-02-18T12:54:11.838Z,11.43
2019-02-18T12:56:38.795Z,9.43
2019-02-18T12:59:05.655Z,9.00
2019-02-18T13:01:32.536Z,11.12
2019-02-18T13:03:59.389Z,9.30
2019-02-18T13:06:26.248Z,8.60
2019-02-18T13:08:53.088Z,10.33
2019-02-18T13:11:19.951Z,9.67
2019-02-18T13:13:46.802Z,8.33
2019-02-18T13:16:13.671Z,17.90
2019-02-18T13:18:40.523Z,7.97
2019-02-18T13:21:07.410Z,9.43
2019-02-18T13:23:34.258Z,9.30
2019-02-18T13:26:01.135Z,9.60
2019-02-18T13:28:27.988Z,7.90
2019-02-18T13:30:54.859Z,9.43
2019-02-18T13:33:21.695Z,8.03
2019-02-18T13:35:48.844Z,8.83
2019-02-18T13:38:15.406Z,12.07
2019-02-18T13:40:42.279Z,7.83
2019-02-18T13:43:09.119Z,7.37
2019-02-18T13:45:35.966Z,11.20
2019-02-18T13:48:02.855Z,6.93
2019-02-18T13:50:29.707Z,6.87
2019-02-18T13:52:56.663Z,8.30
2019-02-18T13:55:23.514Z,9.47
2019-02-18T13:57:50.383Z,8.47
2019-02-18T14:00:18.562Z,10.10
2019-02-18T14:02:45.986Z,11.77
2019-02-18T14:05:12.839Z,8.60
2019-02-18T14:07:39.719Z,8.53
2019-02-18T14:10:06.595Z,7.22
2019-02-18T14:12:33.471Z,9.17
2019-02-18T14:15:00.333Z,7.20
2019-02-18T14:17:27.247Z,5.87
2019-02-18T14:19:54.066Z,6.03
2019-02-18T14:22:20.950Z,5.47
2019-02-18T14:24:47.879Z,5.13
2019-02-18T14:27:14.842Z,5.03
2019-02-18T14:29:41.779Z,5.60
2019-02-18T14:32:08.752Z,9.13
2019-02-18T14:34:35.602Z,5.97
2019-02-18T14:37:02.514Z,5.33
2019-02-18T14:39:29.523Z,5.43
2019-02-18T14:41:56.359Z,6.90
2019-02-18T14:44:23.346Z,5.77
2019-02-18T14:46:50.239Z,5.37
2019-02-18T14:49:17.090Z,7.50
2019-02-18T14:51:43.959Z,6.17
2019-02-18T14:54:10.826Z,8.30
2019-02-18T14:56:37.766Z,6.13
2019-02-18T14:59:04.795Z,6.27
2019-02-18T15:01:31.679Z,7.10
2019-02-18T15:03:58.555Z,8.60
2019-02-18T15:06:25.431Z,5.47
2019-02-18T15:08:52.295Z,7.73
2019-02-18T15:11:19.170Z,7.77
2019-02-18T15:13:46.042Z,6.95
2019-02-18T15:16:12.975Z,8.47
2019-02-18T15:18:39.835Z,7.00
2019-02-18T15:21:06.723Z,6.90
2019-02-18T15:23:33.576Z,8.40
2019-02-18T15:26:00.439Z,4.40
2019-02-18T15:28:27.322Z,5.97
2019-02-18T15:30:54.226Z,7.37
2019-02-18T15:33:21.103Z,5.13
2019-02-18T15:35:48.022Z,6.27
2019-02-18T15:38:14.891Z,5.13
2019-02-18T15:40:41.752Z,4.93
2019-02-18T15:43:08.627Z,5.78
2019-02-18T15:45:35.519Z,6.15
2019-02-18T15:48:02.403Z,4.60
2019-02-18T15:50:29.249Z,6.43
2019-02-18T15:52:56.122Z,6.23
2019-02-18T15:55:22.974Z,5.10
2019-02-18T15:57:49.834Z,9.27
2019-02-18T16:00:19.160Z,8.13
2019-02-18T16:02:46.009Z,6.33
2019-02-18T16:05:12.908Z,6.67
2019-02-18T16:07:39.871Z,7.00
2019-02-18T16:10:07.160Z,6.77
2019-02-18T16:12:34.109Z,13.20
2019-02-18T16:15:00.996Z,6.07
2019-02-18T16:17:27.955Z,6.20
2019-02-18T16:19:54.887Z,7.20
2019-02-18T16:22:21.854Z,21.30
2019-02-18T16:24:48.700Z,11.97
2019-02-18T16:27:15.563Z,9.50
2019-02-18T16:29:42.500Z,9.20
2019-02-18T16:32:09.354Z,6.63
2019-02-18T16:34:36.247Z,8.97
2019-02-18T16:37:03.220Z,6.03
2019-02-18T16:39:30.071Z,6.90
2019-02-18T16:41:56.927Z,11.10
2019-02-18T16:44:23.819Z,9.23
2019-02-18T16:46:50.685Z,6.20
2019-02-18T16:49:17.517Z,8.47
2019-02-18T16:51:44.384Z,10.67
2019-02-18T16:54:11.303Z,6.80
2019-02-18T16:56:38.187Z,8.43
2019-02-18T16:59:05.056Z,7.30
2019-02-18T17:01:31.885Z,6.07
2019-02-18T17:03:58.742Z,7.00
2019-02-18T17:06:25.600Z,6.00
2019-02-18T17:08:52.519Z,7.07
2019-02-18T17:11:19.424Z,11.33
2019-02-18T17:13:46.512Z,53.37
2019-02-18T17:16:13.666Z,83.87
2019-02-18T17:18:40.536Z,41.17
2019-02-18T17:21:07.465Z,32.27
2019-02-18T17:23:34.395Z,21.70
2019-02-18T17:26:01.242Z,13.73
2019-02-18T17:28:28.119Z,9.93
2019-02-18T17:30:55.061Z,9.65
2019-02-18T17:33:21.941Z,9.23
2019-02-18T17:35:48.799Z,7.33
2019-02-18T17:38:15.736Z,8.70
2019-02-18T17:40:42.575Z,12.67
2019-02-18T17:43:16.310Z,11.30
2019-02-18T17:45:36.422Z,10.10
2019-02-18T17:48:03.307Z,10.80
2019-02-18T17:50:30.256Z,11.33
2019-02-18T17:52:58.214Z,15.70
2019-02-18T17:55:23.979Z,14.50
2019-02-18T17:57:50.844Z,12.23
2019-02-18T18:00:18.075Z,15.70
2019-02-18T18:02:44.965Z,20.97
2019-02-18T18:05:11.810Z,17.73
2019-02-18T18:10:28.818Z,11.27
2019-02-18T18:12:55.710Z,9.33
2019-02-18T18:15:22.573Z,9.53
2019-02-18T18:17:49.686Z,8.93
2019-02-18T18:20:16.534Z,17.97
2019-02-18T18:22:43.411Z,11.83
2019-02-18T18:25:10.318Z,14.90
2019-02-18T18:27:37.193Z,14.10
2019-02-18T18:30:04.239Z,17.67
2019-02-18T18:32:31.382Z,19.20
2019-02-18T18:34:58.279Z,21.00
2019-02-18T18:37:25.126Z,13.67
2019-02-18T18:39:52.006Z,15.63
2019-02-18T18:42:18.870Z,13.30
2019-02-18T18:44:46.483Z,22.80
2019-02-18T18:47:13.379Z,14.57
2019-02-18T18:49:40.371Z,19.23
2019-02-18T18:52:07.282Z,15.23
2019-02-18T18:54:34.239Z,13.17
2019-02-18T18:57:01.112Z,10.00
2019-02-18T18:59:27.984Z,10.87
2019-02-18T19:01:54.877Z,12.03
2019-02-18T19:04:21.746Z,10.90
2019-02-18T19:06:48.654Z,11.50
2019-02-18T19:09:15.539Z,11.53
2019-02-18T19:11:42.403Z,12.20
2019-02-18T19:14:09.319Z,14.67
2019-02-18T19:16:36.208Z,12.80
2019-02-18T19:19:03.070Z,12.97
2019-02-18T19:21:29.961Z,13.23
2019-02-18T19:23:56.832Z,11.70
2019-02-18T19:26:23.707Z,14.97
2019-02-18T19:28:50.579Z,12.40
2019-02-18T19:31:17.465Z,13.77
2019-02-18T19:33:44.460Z,11.50
2019-02-18T19:36:11.444Z,15.10
2019-02-18T19:38:38.363Z,13.57
2019-02-18T19:41:05.247Z,16.30
2019-02-18T19:43:32.129Z,15.80
2019-02-18T19:45:59.060Z,12.13
2019-02-18T19:48:25.919Z,18.70
2019-02-18T19:50:52.784Z,14.03
2019-02-18T19:53:19.743Z,17.17
2019-02-18T19:55:46.634Z,15.57
2019-02-18T19:58:13.491Z,13.33
2019-02-18T20:00:40.386Z,15.23
2019-02-18T20:03:07.395Z,14.60
2019-02-18T20:05:37.810Z,16.17
2019-02-18T20:08:04.691Z,17.17
2019-02-18T20:10:31.648Z,13.80
2019-02-18T20:12:58.514Z,13.77
2019-02-18T20:15:25.401Z,15.77
2019-02-18T20:17:52.330Z,15.97
2019-02-18T20:20:19.210Z,17.43
2019-02-18T20:22:46.128Z,16.97
2019-02-18T20:25:13.010Z,22.27
2019-02-18T20:27:39.894Z,19.90
2019-02-18T20:30:07.302Z,23.70
2019-02-18T20:32:34.183Z,17.50
2019-02-18T20:35:01.124Z,15.40
2019-02-18T20:37:27.950Z,20.57
2019-02-18T20:39:54.832Z,12.60
2019-02-18T20:42:21.779Z,18.00
2019-02-18T20:44:48.693Z,19.17
2019-02-18T20:47:15.559Z,19.67
2019-02-18T20:49:42.483Z,18.30
2019-02-18T20:52:09.348Z,22.50
2019-02-18T20:54:36.330Z,19.43
2019-02-18T20:57:03.212Z,18.03
2019-02-18T20:59:30.102Z,19.53
2019-02-18T21:01:56.973Z,26.57
2019-02-18T21:04:23.847Z,18.10
2019-02-18T21:06:50.751Z,24.57
2019-02-18T21:09:17.598Z,23.57
2019-02-18T21:11:44.492Z,20.57
2019-02-18T21:14:16.071Z,28.97
2019-02-18T21:16:38.234Z,24.60
2019-02-18T21:19:05.122Z,22.23
2019-02-18T21:21:32.002Z,21.13
2019-02-18T21:23:58.974Z,16.50
2019-02-18T21:26:25.879Z,18.97
2019-02-18T21:28:52.754Z,16.30
2019-02-18T21:31:21.079Z,35.93
2019-02-18T21:33:47.946Z,33.70
2019-02-18T21:36:14.840Z,24.57
2019-02-18T21:38:41.692Z,21.90
2019-02-18T21:41:08.571Z,22.20
2019-02-18T21:43:35.434Z,28.60
2019-02-18T21:46:02.415Z,29.70
2019-02-18T21:48:29.277Z,22.43
2019-02-18T21:50:56.242Z,20.07
2019-02-18T21:53:23.140Z,20.25
2019-02-18T21:55:49.990Z,26.90
2019-02-18T21:58:16.855Z,22.67
2019-02-18T22:00:43.809Z,23.23
2019-02-18T22:03:10.655Z,21.55
2019-02-18T22:05:37.562Z,19.33
2019-02-18T22:08:04.431Z,21.40
2019-02-18T22:10:31.302Z,16.27
2019-02-18T22:12:58.211Z,17.30
2019-02-18T22:15:25.098Z,19.30
2019-02-18T22:17:51.968Z,24.07
2019-02-18T22:20:18.869Z,18.93
2019-02-18T22:22:45.758Z,26.00
2019-02-18T22:25:12.651Z,16.20
2019-02-18T22:27:39.559Z,16.67
2019-02-18T22:30:08.091Z,17.87
2019-02-18T22:32:34.994Z,12.93
2019-02-18T22:35:01.885Z,17.73
2019-02-18T22:37:28.768Z,14.17
2019-02-18T22:39:55.627Z,18.53
2019-02-18T22:42:22.519Z,14.40
2019-02-18T22:44:49.377Z,17.63
2019-02-18T22:47:16.289Z,19.23
2019-02-18T22:49:43.163Z,16.53
2019-02-18T22:52:10.075Z,16.07
2019-02-18T22:54:36.954Z,14.57
2019-02-18T22:57:03.843Z,16.53
2019-02-18T22:59:30.702Z,13.17
2019-02-18T23:01:57.605Z,13.93
2019-02-18T23:04:24.502Z,15.38
2019-02-18T23:06:52.690Z,14.00
2019-02-18T23:09:19.748Z,15.00
2019-02-18T23:11:46.630Z,12.50
2019-02-18T23:14:13.506Z,15.23
2019-02-18T23:16:40.398Z,14.47
2019-02-18T23:19:07.278Z,17.33
2019-02-18T23:21:34.162Z,17.37
2019-02-18T23:24:01.047Z,13.23
2019-02-18T23:26:27.927Z,20.23
2019-02-18T23:28:54.840Z,14.97
2019-02-18T23:31:21.710Z,16.03
2019-02-18T23:33:48.592Z,19.30
2019-02-18T23:36:15.483Z,19.40
2019-02-18T23:38:42.357Z,13.90
2019-02-18T23:41:09.274Z,15.90
2019-02-18T23:43:36.141Z,17.53
2019-02-18T23:46:03.038Z,15.43
2019-02-18T23:48:29.906Z,15.03
2019-02-18T23:50:56.773Z,15.90
2019-02-18T23:53:23.638Z,17.17
2019-02-18T23:55:50.524Z,16.62
2019-02-18T23:58:17.382Z,16.57
